sensor_id;sensor_type;location;lat;lon;timestamp;temperature;humidity
69324;DHT22;56470;47.350;8.718;2024-01-15T00:01:02;3.16;81.52
69324;DHT22;56470;47.350;8.718;2024-01-15T00:03:27;3.14;80.97
69324;DHT22;56470;47.350;8.718;2024-01-15T00:05:52;3.16;81.14
69324;DHT22;56470;47.350;8.718;2024-01-15T00:08:17;3.11;81.51
69324;DHT22;56470;47.350;8.718;2024-01-15T00:10:43;3.16;81.48
69324;DHT22;56470;47.350;8.718;2024-01-15T00:13:08;3.13;81.60
69324;DHT22;56470;47.350;8.718;2024-01-15T00:15:34;3.11;81.37
69324;DHT22;56470;47.350;8.718;2024-01-15T00:17:59;3.16;81.34
69324;DHT22;56470;47.350;8.718;2024-01-15T00:20:24;3.17;81.49
69324;DHT22;56470;47.350;8.718;2024-01-15T00:22:50;3.13;81.64
69324;DHT22;56470;47.350;8.718;2024-01-15T00:25:15;3.13;81.93
69324;DHT22;56470;47.350;8.718;2024-01-15T00:27:40;3.09;82.18
69324;DHT22;56470;47.350;8.718;2024-01-15T00:30:06;3.10;82.05
69324;DHT22;56470;47.350;8.718;2024-01-15T00:32:31;3.11;81.52
69324;DHT22;56470;47.350;8.718;2024-01-15T00:34:57;3.16;81.59
69324;DHT22;56470;47.350;8.718;2024-01-15T00:37:22;3.13;82.02
69324;DHT22;56470;47.350;8.718;2024-01-15T00:39:47;3.11;82.05
69324;DHT22;56470;47.350;8.718;2024-01-15T00:42:13;3.10;82.18
69324;DHT22;56470;47.350;8.718;2024-01-15T00:44:38;3.11;82.60
69324;DHT22;56470;47.350;8.718;2024-01-15T00:47:03;3.13;81.87
69324;DHT22;56470;47.350;8.718;2024-01-15T00:49:29;3.14;81.75
69324;DHT22;56470;47.350;8.718;2024-01-15T00:51:54;3.16;82.04
69324;DHT22;56470;47.350;8.718;2024-01-15T00:54:20;3.13;81.91
69324;DHT22;56470;47.350;8.718;2024-01-15T00:56:45;3.21;81.44
69324;DHT22;56470;47.350;8.718;2024-01-15T00:59:10;3.26;81.34
69324;DHT22;56470;47.350;8.718;2024-01-15T01:01:39;3.28;81.23
69324;DHT22;56470;47.350;8.718;2024-01-15T01:04:08;3.28;81.37
69324;DHT22;56470;47.350;8.718;2024-01-15T01:06:34;3.24;81.60
69324;DHT22;56470;47.350;8.718;2024-01-15T01:09:00;3.21;81.74
69324;DHT22;56470;47.350;8.718;2024-01-15T01:11:25;3.21;81.75
69324;DHT22;56470;47.350;8.718;2024-01-15T01:13:50;3.18;81.86
69324;DHT22;56470;47.350;8.718;2024-01-15T01:16:16;3.17;81.89
69324;DHT22;56470;47.350;8.718;2024-01-15T01:18:41;3.21;81.41
69324;DHT22;56470;47.350;8.718;2024-01-15T01:21:06;3.28;81.12
69324;DHT22;56470;47.350;8.718;2024-01-15T01:23:31;3.31;80.94
69324;DHT22;56470;47.350;8.718;2024-01-15T01:25:57;3.32;80.97
69324;DHT22;56470;47.350;8.718;2024-01-15T01:28:22;3.32;80.96
69324;DHT22;56470;47.350;8.718;2024-01-15T01:30:47;3.31;80.87
69324;DHT22;56470;47.350;8.718;2024-01-15T01:33:13;3.27;80.81
69324;DHT22;56470;47.350;8.718;2024-01-15T01:35:38;3.24;80.54
69324;DHT22;56470;47.350;8.718;2024-01-15T01:38:04;3.21;80.36
69324;DHT22;56470;47.350;8.718;2024-01-15T01:40:29;3.20;80.18
69324;DHT22;56470;47.350;8.718;2024-01-15T01:42:54;3.13;80.07
69324;DHT22;56470;47.350;8.718;2024-01-15T01:45:20;3.07;80.14
69324;DHT22;56470;47.350;8.718;2024-01-15T01:47:45;3.00;80.09
69324;DHT22;56470;47.350;8.718;2024-01-15T01:50:10;2.96;80.17
69324;DHT22;56470;47.350;8.718;2024-01-15T01:52:36;2.89;80.20
69324;DHT22;56470;47.350;8.718;2024-01-15T01:55:03;2.89;80.28
69324;DHT22;56470;47.350;8.718;2024-01-15T01:57:30;2.81;80.36
69324;DHT22;56470;47.350;8.718;2024-01-15T01:59:56;2.78;80.39
69324;DHT22;56470;47.350;8.718;2024-01-15T02:02:23;2.69;80.40
69324;DHT22;56470;47.350;8.718;2024-01-15T02:04:49;2.66;80.28
69324;DHT22;56470;47.350;8.718;2024-01-15T02:07:14;2.61;80.34
69324;DHT22;56470;47.350;8.718;2024-01-15T02:09:42;2.54;80.12
69324;DHT22;56470;47.350;8.718;2024-01-15T02:12:09;2.41;80.00
69324;DHT22;56470;47.350;8.718;2024-01-15T02:14:34;2.34;79.77
69324;DHT22;56470;47.350;8.718;2024-01-15T02:17:00;2.37;79.60
69324;DHT22;56470;47.350;8.718;2024-01-15T02:19:25;2.26;79.32
69324;DHT22;56470;47.350;8.718;2024-01-15T02:21:50;2.28;79.28
69324;DHT22;56470;47.350;8.718;2024-01-15T02:24:16;2.28;79.20
69324;DHT22;56470;47.350;8.718;2024-01-15T02:26:41;2.27;78.94
69324;DHT22;56470;47.350;8.718;2024-01-15T02:29:07;2.21;78.86
69324;DHT22;56470;47.350;8.718;2024-01-15T02:31:36;2.23;78.99
69324;DHT22;56470;47.350;8.718;2024-01-15T02:34:02;2.26;78.99
69324;DHT22;56470;47.350;8.718;2024-01-15T02:36:27;2.21;78.69
69324;DHT22;56470;47.350;8.718;2024-01-15T02:38:52;2.23;78.76
69324;DHT22;56470;47.350;8.718;2024-01-15T02:41:18;2.26;78.82
69324;DHT22;56470;47.350;8.718;2024-01-15T02:43:43;2.26;78.88
69324;DHT22;56470;47.350;8.718;2024-01-15T02:46:09;2.27;78.82
69324;DHT22;56470;47.350;8.718;2024-01-15T02:48:34;2.31;78.83
69324;DHT22;56470;47.350;8.718;2024-01-15T02:51:02;2.33;78.64
69324;DHT22;56470;47.350;8.718;2024-01-15T02:53:27;2.23;78.48
69324;DHT22;56470;47.350;8.718;2024-01-15T02:55:53;2.17;78.63
69324;DHT22;56470;47.350;8.718;2024-01-15T02:58:18;2.14;78.67
69324;DHT22;56470;47.350;8.718;2024-01-15T03:00:43;2.13;78.64
69324;DHT22;56470;47.350;8.718;2024-01-15T03:03:09;2.13;78.72
69324;DHT22;56470;47.350;8.718;2024-01-15T03:05:34;2.06;78.74
69324;DHT22;56470;47.350;8.718;2024-01-15T03:07:59;2.05;78.85
69324;DHT22;56470;47.350;8.718;2024-01-15T03:10:25;1.99;78.70
69324;DHT22;56470;47.350;8.718;2024-01-15T03:12:50;2.00;78.59
69324;DHT22;56470;47.350;8.718;2024-01-15T03:15:15;1.92;78.57
69324;DHT22;56470;47.350;8.718;2024-01-15T03:17:41;1.93;78.66
69324;DHT22;56470;47.350;8.718;2024-01-15T03:20:08;1.92;78.61
69324;DHT22;56470;47.350;8.718;2024-01-15T03:22:33;1.95;78.63
69324;DHT22;56470;47.350;8.718;2024-01-15T03:24:59;1.98;78.53
69324;DHT22;56470;47.350;8.718;2024-01-15T03:27:24;1.98;78.49
69324;DHT22;56470;47.350;8.718;2024-01-15T03:29:51;2.06;78.51
69324;DHT22;56470;47.350;8.718;2024-01-15T03:32:16;2.07;78.40
69324;DHT22;56470;47.350;8.718;2024-01-15T03:34:41;2.09;78.10
69324;DHT22;56470;47.350;8.718;2024-01-15T03:37:07;2.10;78.29
69324;DHT22;56470;47.350;8.718;2024-01-15T03:39:32;2.14;78.25
69324;DHT22;56470;47.350;8.718;2024-01-15T03:41:57;2.11;77.43
69324;DHT22;56470;47.350;8.718;2024-01-15T03:44:23;2.13;77.24
69324;DHT22;56470;47.350;8.718;2024-01-15T03:46:48;2.19;77.63
69324;DHT22;56470;47.350;8.718;2024-01-15T03:49:13;2.19;77.34
69324;DHT22;56470;47.350;8.718;2024-01-15T03:51:39;2.14;77.11
69324;DHT22;56470;47.350;8.718;2024-01-15T03:54:04;2.19;77.17
69324;DHT22;56470;47.350;8.718;2024-01-15T03:56:29;2.17;76.59
69324;DHT22;56470;47.350;8.718;2024-01-15T03:58:55;2.13;75.86
69324;DHT22;56470;47.350;8.718;2024-01-15T04:01:20;2.14;76.85
69324;DHT22;56470;47.350;8.718;2024-01-15T04:03:45;2.14;76.19
69324;DHT22;56470;47.350;8.718;2024-01-15T04:06:11;2.19;76.56
69324;DHT22;56470;47.350;8.718;2024-01-15T04:08:36;2.20;75.90
69324;DHT22;56470;47.350;8.718;2024-01-15T04:11:01;2.20;75.68
69324;DHT22;56470;47.350;8.718;2024-01-15T04:13:27;2.21;75.88
69324;DHT22;56470;47.350;8.718;2024-01-15T04:15:52;2.20;75.38
69324;DHT22;56470;47.350;8.718;2024-01-15T04:18:17;2.20;74.81
69324;DHT22;56470;47.350;8.718;2024-01-15T04:20:43;2.21;75.65
69324;DHT22;56470;47.350;8.718;2024-01-15T04:23:09;2.16;74.95
69324;DHT22;56470;47.350;8.718;2024-01-15T04:25:34;2.16;75.05
69324;DHT22;56470;47.350;8.718;2024-01-15T04:27:59;2.13;74.31
69324;DHT22;56470;47.350;8.718;2024-01-15T04:30:25;2.13;74.36
69324;DHT22;56470;47.350;8.718;2024-01-15T04:32:50;2.19;75.09
69324;DHT22;56470;47.350;8.718;2024-01-15T04:35:15;2.17;74.91
69324;DHT22;56470;47.350;8.718;2024-01-15T04:37:41;2.13;74.20
69324;DHT22;56470;47.350;8.718;2024-01-15T04:40:07;2.17;74.17
69324;DHT22;56470;47.350;8.718;2024-01-15T04:42:32;2.20;74.26
69324;DHT22;56470;47.350;8.718;2024-01-15T04:44:57;2.24;74.61
69324;DHT22;56470;47.350;8.718;2024-01-15T04:47:23;2.21;74.14
69324;DHT22;56470;47.350;8.718;2024-01-15T04:49:48;2.20;74.42
69324;DHT22;56470;47.350;8.718;2024-01-15T04:52:17;2.23;74.24
69324;DHT22;56470;47.350;8.718;2024-01-15T04:54:42;2.20;73.95
69324;DHT22;56470;47.350;8.718;2024-01-15T04:57:07;2.17;73.66
69324;DHT22;56470;47.350;8.718;2024-01-15T04:59:33;2.19;73.73
69324;DHT22;56470;47.350;8.718;2024-01-15T05:02:00;2.20;73.94
69324;DHT22;56470;47.350;8.718;2024-01-15T05:04:26;2.19;73.84
69324;DHT22;56470;47.350;8.718;2024-01-15T05:06:51;2.19;73.72
69324;DHT22;56470;47.350;8.718;2024-01-15T05:09:16;2.19;73.78
69324;DHT22;56470;47.350;8.718;2024-01-15T05:11:43;2.23;74.69
69324;DHT22;56470;47.350;8.718;2024-01-15T05:14:08;2.21;74.05
69324;DHT22;56470;47.350;8.718;2024-01-15T05:16:33;2.20;73.47
69324;DHT22;56470;47.350;8.718;2024-01-15T05:18:59;2.20;73.58
69324;DHT22;56470;47.350;8.718;2024-01-15T05:21:24;2.20;73.88
69324;DHT22;56470;47.350;8.718;2024-01-15T05:23:49;2.21;73.80
69324;DHT22;56470;47.350;8.718;2024-01-15T05:26:15;2.26;73.90
69324;DHT22;56470;47.350;8.718;2024-01-15T05:28:43;2.26;73.66
69324;DHT22;56470;47.350;8.718;2024-01-15T05:31:09;2.26;74.11
69324;DHT22;56470;47.350;8.718;2024-01-15T05:33:34;2.28;73.78
69324;DHT22;56470;47.350;8.718;2024-01-15T05:35:59;2.30;74.00
69324;DHT22;56470;47.350;8.718;2024-01-15T05:38:25;2.30;73.61
69324;DHT22;56470;47.350;8.718;2024-01-15T05:40:50;2.34;73.78
69324;DHT22;56470;47.350;8.718;2024-01-15T05:43:15;2.36;73.81
69324;DHT22;56470;47.350;8.718;2024-01-15T05:45:43;2.40;73.95
69324;DHT22;56470;47.350;8.718;2024-01-15T05:48:08;2.44;73.91
69324;DHT22;56470;47.350;8.718;2024-01-15T05:50:34;2.47;73.79
69324;DHT22;56470;47.350;8.718;2024-01-15T05:52:59;2.45;73.33
69324;DHT22;56470;47.350;8.718;2024-01-15T05:55:24;2.44;73.32
69324;DHT22;56470;47.350;8.718;2024-01-15T05:57:50;2.41;73.36
69324;DHT22;56470;47.350;8.718;2024-01-15T06:00:15;2.42;73.67
69324;DHT22;56470;47.350;8.718;2024-01-15T06:02:41;2.42;73.29
69324;DHT22;56470;47.350;8.718;2024-01-15T06:05:06;2.42;72.99
69324;DHT22;56470;47.350;8.718;2024-01-15T06:07:34;2.47;73.35
69324;DHT22;56470;47.350;8.718;2024-01-15T06:09:59;2.48;73.44
69324;DHT22;56470;47.350;8.718;2024-01-15T06:12:24;2.54;72.93
69324;DHT22;56470;47.350;8.718;2024-01-15T06:14:50;2.51;73.14
69324;DHT22;56470;47.350;8.718;2024-01-15T06:17:15;2.52;72.94
69324;DHT22;56470;47.350;8.718;2024-01-15T06:19:41;2.48;72.53
69324;DHT22;56470;47.350;8.718;2024-01-15T06:22:06;2.48;72.63
69324;DHT22;56470;47.350;8.718;2024-01-15T06:24:31;2.40;72.57
69324;DHT22;56470;47.350;8.718;2024-01-15T06:26:57;2.41;72.55
69324;DHT22;56470;47.350;8.718;2024-01-15T06:29:25;2.47;72.89
69324;DHT22;56470;47.350;8.718;2024-01-15T06:31:51;2.47;72.73
69324;DHT22;56470;47.350;8.718;2024-01-15T06:34:16;2.48;72.57
69324;DHT22;56470;47.350;8.718;2024-01-15T06:36:41;2.48;72.78
69324;DHT22;56470;47.350;8.718;2024-01-15T06:39:07;2.49;72.87
69324;DHT22;56470;47.350;8.718;2024-01-15T06:41:32;2.42;71.99
69324;DHT22;56470;47.350;8.718;2024-01-15T06:43:58;2.44;72.79
69324;DHT22;56470;47.350;8.718;2024-01-15T06:46:23;2.51;73.03
69324;DHT22;56470;47.350;8.718;2024-01-15T06:48:49;2.49;72.88
69324;DHT22;56470;47.350;8.718;2024-01-15T06:51:15;2.42;72.27
69324;DHT22;56470;47.350;8.718;2024-01-15T06:53:41;2.38;72.85
69324;DHT22;56470;47.350;8.718;2024-01-15T06:56:06;2.31;72.59
69324;DHT22;56470;47.350;8.718;2024-01-15T06:58:31;2.34;72.91
69324;DHT22;56470;47.350;8.718;2024-01-15T07:00:57;2.38;72.78
69324;DHT22;56470;47.350;8.718;2024-01-15T07:03:23;2.38;72.56
69324;DHT22;56470;47.350;8.718;2024-01-15T07:05:48;2.37;72.37
69324;DHT22;56470;47.350;8.718;2024-01-15T07:08:13;2.37;72.66
69324;DHT22;56470;47.350;8.718;2024-01-15T07:10:39;2.33;72.62
69324;DHT22;56470;47.350;8.718;2024-01-15T07:13:04;2.26;72.10
69324;DHT22;56470;47.350;8.718;2024-01-15T07:15:31;2.14;72.21
69324;DHT22;56470;47.350;8.718;2024-01-15T07:17:57;2.14;72.56
69324;DHT22;56470;47.350;8.718;2024-01-15T07:20:22;2.11;72.38
69324;DHT22;56470;47.350;8.718;2024-01-15T07:22:47;2.09;72.63
69324;DHT22;56470;47.350;8.718;2024-01-15T07:25:13;2.13;72.87
69324;DHT22;56470;47.350;8.718;2024-01-15T07:27:38;2.16;72.76
69324;DHT22;56470;47.350;8.718;2024-01-15T07:30:04;2.17;73.04
69324;DHT22;56470;47.350;8.718;2024-01-15T07:32:31;2.09;72.93
69324;DHT22;56470;47.350;8.718;2024-01-15T07:34:56;2.17;73.33
69324;DHT22;56470;47.350;8.718;2024-01-15T07:37:22;2.19;73.35
69324;DHT22;56470;47.350;8.718;2024-01-15T07:39:48;2.20;73.20
69324;DHT22;56470;47.350;8.718;2024-01-15T07:42:14;2.17;73.26
69324;DHT22;56470;47.350;8.718;2024-01-15T07:44:39;2.17;73.39
69324;DHT22;56470;47.350;8.718;2024-01-15T07:47:05;2.20;73.37
69324;DHT22;56470;47.350;8.718;2024-01-15T07:49:30;2.26;73.48
69324;DHT22;56470;47.350;8.718;2024-01-15T07:51:55;2.28;73.45
69324;DHT22;56470;47.350;8.718;2024-01-15T07:54:21;2.37;73.35
69324;DHT22;56470;47.350;8.718;2024-01-15T07:56:56;2.40;73.41
69324;DHT22;56470;47.350;8.718;2024-01-15T07:59:26;2.45;73.39
69324;DHT22;56470;47.350;8.718;2024-01-15T08:01:52;2.47;73.28
69324;DHT22;56470;47.350;8.718;2024-01-15T08:04:17;2.49;73.49
69324;DHT22;56470;47.350;8.718;2024-01-15T08:06:43;2.54;73.32
69324;DHT22;56470;47.350;8.718;2024-01-15T08:09:08;2.55;73.33
69324;DHT22;56470;47.350;8.718;2024-01-15T08:11:39;2.59;73.46
69324;DHT22;56470;47.350;8.718;2024-01-15T08:14:04;2.58;73.19
69324;DHT22;56470;47.350;8.718;2024-01-15T08:16:29;2.59;73.20
69324;DHT22;56470;47.350;8.718;2024-01-15T08:18:55;2.59;73.49
69324;DHT22;56470;47.350;8.718;2024-01-15T08:21:20;2.64;73.45
69324;DHT22;56470;47.350;8.718;2024-01-15T08:23:45;2.64;73.39
69324;DHT22;56470;47.350;8.718;2024-01-15T08:26:11;2.64;73.29
69324;DHT22;56470;47.350;8.718;2024-01-15T08:28:36;2.64;72.78
69324;DHT22;56470;47.350;8.718;2024-01-15T08:31:02;2.65;73.14
69324;DHT22;56470;47.350;8.718;2024-01-15T08:33:28;2.66;72.68
69324;DHT22;56470;47.350;8.718;2024-01-15T08:35:53;2.68;72.68
69324;DHT22;56470;47.350;8.718;2024-01-15T08:38:19;2.69;72.63
69324;DHT22;56470;47.350;8.718;2024-01-15T08:40:44;2.66;72.32
69324;DHT22;56470;47.350;8.718;2024-01-15T08:46:39;2.72;72.34
69324;DHT22;56470;47.350;8.718;2024-01-15T08:49:13;2.73;72.40
69324;DHT22;56470;47.350;8.718;2024-01-15T08:51:40;2.72;72.09
69324;DHT22;56470;47.350;8.718;2024-01-15T08:54:14;2.71;72.21
69324;DHT22;56470;47.350;8.718;2024-01-15T08:57:26;2.73;71.76
69324;DHT22;56470;47.350;8.718;2024-01-15T09:00:14;2.75;71.74
69324;DHT22;56470;47.350;8.718;2024-01-15T09:03:15;2.73;71.45
69324;DHT22;56470;47.350;8.718;2024-01-15T09:05:55;2.76;71.86
69324;DHT22;56470;47.350;8.718;2024-01-15T09:08:46;2.75;71.85
69324;DHT22;56470;47.350;8.718;2024-01-15T09:11:45;2.76;71.34
69324;DHT22;56470;47.350;8.718;2024-01-15T09:14:10;2.78;71.90
69324;DHT22;56470;47.350;8.718;2024-01-15T09:16:35;2.79;71.54
69324;DHT22;56470;47.350;8.718;2024-01-15T09:19:01;2.79;71.47
69324;DHT22;56470;47.350;8.718;2024-01-15T09:21:26;2.81;71.40
69324;DHT22;56470;47.350;8.718;2024-01-15T09:23:51;2.81;71.54
69324;DHT22;56470;47.350;8.718;2024-01-15T09:26:17;2.79;71.48
69324;DHT22;56470;47.350;8.718;2024-01-15T09:28:42;2.79;71.37
69324;DHT22;56470;47.350;8.718;2024-01-15T09:31:07;2.79;71.54
69324;DHT22;56470;47.350;8.718;2024-01-15T09:33:33;2.79;71.51
69324;DHT22;56470;47.350;8.718;2024-01-15T09:36:02;2.79;71.51
69324;DHT22;56470;47.350;8.718;2024-01-15T09:38:29;2.82;71.40
69324;DHT22;56470;47.350;8.718;2024-01-15T09:40:54;2.83;71.33
69324;DHT22;56470;47.350;8.718;2024-01-15T09:43:20;2.83;71.09
69324;DHT22;56470;47.350;8.718;2024-01-15T09:45:46;2.85;71.07
69324;DHT22;56470;47.350;8.718;2024-01-15T09:48:11;2.89;70.99
69324;DHT22;56470;47.350;8.718;2024-01-15T09:50:37;2.86;70.80
69324;DHT22;56470;47.350;8.718;2024-01-15T09:53:05;2.89;70.79
69324;DHT22;56470;47.350;8.718;2024-01-15T09:55:30;2.88;70.12
69324;DHT22;56470;47.350;8.718;2024-01-15T09:57:58;2.86;70.37
69324;DHT22;56470;47.350;8.718;2024-01-15T10:00:25;2.82;70.57
69324;DHT22;56470;47.350;8.718;2024-01-15T10:02:51;2.76;71.05
69324;DHT22;56470;47.350;8.718;2024-01-15T10:05:16;2.68;71.61
69324;DHT22;56470;47.350;8.718;2024-01-15T10:07:42;2.62;71.79
69324;DHT22;56470;47.350;8.718;2024-01-15T10:10:07;2.52;72.25
69324;DHT22;56470;47.350;8.718;2024-01-15T10:12:33;2.52;72.47
69324;DHT22;56470;47.350;8.718;2024-01-15T10:14:58;2.41;72.72
69324;DHT22;56470;47.350;8.718;2024-01-15T10:17:24;2.34;73.60
69324;DHT22;56470;47.350;8.718;2024-01-15T10:19:50;2.23;74.66
69324;DHT22;56470;47.350;8.718;2024-01-15T10:22:16;2.20;74.32
69324;DHT22;56470;47.350;8.718;2024-01-15T10:24:43;2.20;74.57
69324;DHT22;56470;47.350;8.718;2024-01-15T10:27:09;2.21;74.80
69324;DHT22;56470;47.350;8.718;2024-01-15T10:29:35;2.19;75.02
69324;DHT22;56470;47.350;8.718;2024-01-15T10:32:02;2.24;74.71
69324;DHT22;56470;47.350;8.718;2024-01-15T10:34:28;2.19;75.28
69324;DHT22;56470;47.350;8.718;2024-01-15T10:36:54;2.19;75.25
69324;DHT22;56470;47.350;8.718;2024-01-15T10:39:22;2.20;74.82
69324;DHT22;56470;47.350;8.718;2024-01-15T10:41:49;2.21;75.01
69324;DHT22;56470;47.350;8.718;2024-01-15T10:44:14;2.20;75.27
69324;DHT22;56470;47.350;8.718;2024-01-15T10:46:40;2.23;75.29
69324;DHT22;56470;47.350;8.718;2024-01-15T10:49:06;2.11;75.73
69324;DHT22;56470;47.350;8.718;2024-01-15T10:51:32;2.02;76.36
69324;DHT22;56470;47.350;8.718;2024-01-15T10:53:59;2.11;75.45
69324;DHT22;56470;47.350;8.718;2024-01-15T10:56:25;2.13;75.96
69324;DHT22;56470;47.350;8.718;2024-01-15T10:58:56;2.07;75.44
69324;DHT22;56470;47.350;8.718;2024-01-15T11:01:22;1.96;76.53
69324;DHT22;56470;47.350;8.718;2024-01-15T11:03:50;1.99;76.24
69324;DHT22;56470;47.350;8.718;2024-01-15T11:06:19;1.96;76.02
69324;DHT22;56470;47.350;8.718;2024-01-15T11:08:49;2.07;75.83
69324;DHT22;56470;47.350;8.718;2024-01-15T11:11:17;2.14;75.65
69324;DHT22;56470;47.350;8.718;2024-01-15T11:13:43;2.14;75.55
69324;DHT22;56470;47.350;8.718;2024-01-15T11:16:13;2.14;75.45
69324;DHT22;56470;47.350;8.718;2024-01-15T11:21:23;2.10;75.40
69324;DHT22;56470;47.350;8.718;2024-01-15T11:23:52;2.14;75.07
69324;DHT22;56470;47.350;8.718;2024-01-15T11:26:36;2.05;74.84
69324;DHT22;56470;47.350;8.718;2024-01-15T11:29:07;2.14;74.71
69324;DHT22;56470;47.350;8.718;2024-01-15T11:34:08;2.09;74.46
69324;DHT22;56470;47.350;8.718;2024-01-15T11:41:55;2.13;73.78
69324;DHT22;56470;47.350;8.718;2024-01-15T11:44:21;2.13;73.24
69324;DHT22;56470;47.350;8.718;2024-01-15T11:46:58;2.16;73.28
69324;DHT22;56470;47.350;8.718;2024-01-15T11:52:09;2.23;73.62
69324;DHT22;56470;47.350;8.718;2024-01-15T11:54:38;2.19;73.72
69324;DHT22;56470;47.350;8.718;2024-01-15T11:57:10;2.21;73.94
69324;DHT22;56470;47.350;8.718;2024-01-15T11:59:37;2.19;74.17
69324;DHT22;56470;47.350;8.718;2024-01-15T12:02:03;2.17;74.39
69324;DHT22;56470;47.350;8.718;2024-01-15T12:04:28;2.24;74.17
69324;DHT22;56470;47.350;8.718;2024-01-15T12:06:53;2.34;73.97
69324;DHT22;56470;47.350;8.718;2024-01-15T12:09:19;2.37;73.41
69324;DHT22;56470;47.350;8.718;2024-01-15T12:11:54;2.42;73.24
69324;DHT22;56470;47.350;8.718;2024-01-15T12:14:24;2.37;72.49
69324;DHT22;56470;47.350;8.718;2024-01-15T12:16:49;2.42;72.93
69324;DHT22;56470;47.350;8.718;2024-01-15T12:19:15;2.44;72.87
69324;DHT22;56470;47.350;8.718;2024-01-15T12:21:41;2.48;72.00
69324;DHT22;56470;47.350;8.718;2024-01-15T12:24:09;2.47;72.26
69324;DHT22;56470;47.350;8.718;2024-01-15T12:26:35;2.48;72.63
69324;DHT22;56470;47.350;8.718;2024-01-15T12:29:06;2.44;72.56
69324;DHT22;56470;47.350;8.718;2024-01-15T12:31:32;2.36;72.74
69324;DHT22;56470;47.350;8.718;2024-01-15T12:33:57;2.45;72.97
69324;DHT22;56470;47.350;8.718;2024-01-15T12:36:23;2.49;72.85
69324;DHT22;56470;47.350;8.718;2024-01-15T12:38:48;2.48;72.75
69324;DHT22;56470;47.350;8.718;2024-01-15T12:41:14;2.37;73.26
69324;DHT22;56470;47.350;8.718;2024-01-15T12:43:40;2.33;73.29
69324;DHT22;56470;47.350;8.718;2024-01-15T12:46:05;2.31;73.28
69324;DHT22;56470;47.350;8.718;2024-01-15T12:48:31;2.38;73.25
69324;DHT22;56470;47.350;8.718;2024-01-15T12:50:56;2.40;73.16
69324;DHT22;56470;47.350;8.718;2024-01-15T12:53:21;2.48;73.07
69324;DHT22;56470;47.350;8.718;2024-01-15T12:55:47;2.51;72.29
69324;DHT22;56470;47.350;8.718;2024-01-15T12:58:12;2.59;72.95
69324;DHT22;56470;47.350;8.718;2024-01-15T13:00:37;2.71;72.95
69324;DHT22;56470;47.350;8.718;2024-01-15T13:03:03;2.65;71.21
69324;DHT22;56470;47.350;8.718;2024-01-15T13:05:29;2.66;71.37
69324;DHT22;56470;47.350;8.718;2024-01-15T13:07:56;2.66;71.58
69324;DHT22;56470;47.350;8.718;2024-01-15T13:10:21;2.68;71.48
69324;DHT22;56470;47.350;8.718;2024-01-15T13:12:46;2.73;71.10
69324;DHT22;56470;47.350;8.718;2024-01-15T13:15:12;2.73;70.72
69324;DHT22;56470;47.350;8.718;2024-01-15T13:17:38;2.72;70.72
69324;DHT22;56470;47.350;8.718;2024-01-15T13:20:05;2.81;71.38
69324;DHT22;56470;47.350;8.718;2024-01-15T13:22:31;2.86;71.35
69324;DHT22;56470;47.350;8.718;2024-01-15T13:24:57;2.88;70.63
69324;DHT22;56470;47.350;8.718;2024-01-15T13:27:23;2.93;71.05
69324;DHT22;56470;47.350;8.718;2024-01-15T13:29:48;2.99;70.96
69324;DHT22;56470;47.350;8.718;2024-01-15T13:32:17;3.01;70.39
69324;DHT22;56470;47.350;8.718;2024-01-15T13:34:45;3.06;70.67
69324;DHT22;56470;47.350;8.718;2024-01-15T13:37:11;3.11;70.89
69324;DHT22;56470;47.350;8.718;2024-01-15T13:39:36;3.14;70.79
69324;DHT22;56470;47.350;8.718;2024-01-15T13:42:02;3.21;70.35
69324;DHT22;56470;47.350;8.718;2024-01-15T13:44:28;3.26;70.17
69324;DHT22;56470;47.350;8.718;2024-01-15T13:46:53;3.31;70.09
69324;DHT22;56470;47.350;8.718;2024-01-15T13:49:18;3.31;70.04
69324;DHT22;56470;47.350;8.718;2024-01-15T13:51:43;3.30;69.29
69324;DHT22;56470;47.350;8.718;2024-01-15T13:54:09;3.32;69.72
69324;DHT22;56470;47.350;8.718;2024-01-15T13:56:34;3.35;69.77
69324;DHT22;56470;47.350;8.718;2024-01-15T13:59:00;3.42;69.79
69324;DHT22;56470;47.350;8.718;2024-01-15T14:01:27;3.48;70.02
69324;DHT22;56470;47.350;8.718;2024-01-15T14:03:54;3.50;69.37
69324;DHT22;56470;47.350;8.718;2024-01-15T14:06:19;3.50;69.51
69324;DHT22;56470;47.350;8.718;2024-01-15T14:08:45;3.52;69.43
69324;DHT22;56470;47.350;8.718;2024-01-15T14:11:10;3.52;69.86
69324;DHT22;56470;47.350;8.718;2024-01-15T14:13:35;3.51;68.73
69324;DHT22;56470;47.350;8.718;2024-01-15T14:16:01;3.51;69.23
69324;DHT22;56470;47.350;8.718;2024-01-15T14:18:27;3.54;69.04
69324;DHT22;56470;47.350;8.718;2024-01-15T14:20:52;3.52;69.23
69324;DHT22;56470;47.350;8.718;2024-01-15T14:23:19;3.55;69.38
69324;DHT22;56470;47.350;8.718;2024-01-15T14:25:44;3.56;69.59
69324;DHT22;56470;47.350;8.718;2024-01-15T14:28:10;3.56;69.29
69324;DHT22;56470;47.350;8.718;2024-01-15T14:30:35;3.52;69.28
69324;DHT22;56470;47.350;8.718;2024-01-15T14:33:01;3.55;69.49
69324;DHT22;56470;47.350;8.718;2024-01-15T14:35:26;3.54;68.96
69324;DHT22;56470;47.350;8.718;2024-01-15T14:37:52;3.54;69.22
69324;DHT22;56470;47.350;8.718;2024-01-15T14:40:17;3.56;69.55
69324;DHT22;56470;47.350;8.718;2024-01-15T14:42:43;3.63;69.48
69324;DHT22;56470;47.350;8.718;2024-01-15T14:45:09;3.62;69.56
69324;DHT22;56470;47.350;8.718;2024-01-15T14:47:37;3.62;69.29
69324;DHT22;56470;47.350;8.718;2024-01-15T14:50:05;3.68;69.58
69324;DHT22;56470;47.350;8.718;2024-01-15T14:52:31;3.65;69.49
69324;DHT22;56470;47.350;8.718;2024-01-15T14:54:56;3.65;69.59
69324;DHT22;56470;47.350;8.718;2024-01-15T14:57:21;3.71;69.67
69324;DHT22;56470;47.350;8.718;2024-01-15T14:59:47;3.69;69.56
69324;DHT22;56470;47.350;8.718;2024-01-15T15:02:12;3.71;69.52
69324;DHT22;56470;47.350;8.718;2024-01-15T15:04:37;3.71;69.52
69324;DHT22;56470;47.350;8.718;2024-01-15T15:07:03;3.73;69.51
69324;DHT22;56470;47.350;8.718;2024-01-15T15:09:28;3.73;69.55
69324;DHT22;56470;47.350;8.718;2024-01-15T15:11:53;3.72;69.65
69324;DHT22;56470;47.350;8.718;2024-01-15T15:14:19;3.75;69.64
69324;DHT22;56470;47.350;8.718;2024-01-15T15:16:45;3.72;69.27
69324;DHT22;56470;47.350;8.718;2024-01-15T15:19:12;3.68;69.45
69324;DHT22;56470;47.350;8.718;2024-01-15T15:21:37;3.68;69.51
69324;DHT22;56470;47.350;8.718;2024-01-15T15:24:03;3.65;69.42
69324;DHT22;56470;47.350;8.718;2024-01-15T15:26:28;3.65;69.60
69324;DHT22;56470;47.350;8.718;2024-01-15T15:28:53;3.65;69.55
69324;DHT22;56470;47.350;8.718;2024-01-15T15:31:19;3.63;69.76
69324;DHT22;56470;47.350;8.718;2024-01-15T15:33:44;3.56;69.56
69324;DHT22;56470;47.350;8.718;2024-01-15T15:36:10;3.55;69.95
69324;DHT22;56470;47.350;8.718;2024-01-15T15:38:35;3.54;69.84
69324;DHT22;56470;47.350;8.718;2024-01-15T15:41:03;3.52;70.18
69324;DHT22;56470;47.350;8.718;2024-01-15T15:43:29;3.50;70.23
69324;DHT22;56470;47.350;8.718;2024-01-15T15:45:56;3.48;70.39
69324;DHT22;56470;47.350;8.718;2024-01-15T15:48:23;3.50;70.41
69324;DHT22;56470;47.350;8.718;2024-01-15T15:50:50;3.46;70.42
69324;DHT22;56470;47.350;8.718;2024-01-15T15:53:16;3.45;70.49
69324;DHT22;56470;47.350;8.718;2024-01-15T15:55:41;3.45;70.64